Atwater, IL

5:40 PM CDT on August 28, 2016 (GMT -0500)
North West side of town | | Change Station

Elev 640 ft 39.32 °N, 89.58 °W | Updated 14 minutes ago

Clear
Clear
91.0 °F
Feels Like 100 °F
N
6.8
Wind Variable Wind from East

Today
High -- | Low -- °F
--% Chance of Precip.
Yesterday
High -- | Low -- °F
Precip. -- in
Pressure 30.11 in
Visibility 10.0 miles
Clouds Clear
Heat Index 100 °F
Dew Point 74 °F
Humidity 57%
Rainfall 0.00 in
Snow Depth Not available.
6:23 AM 7:34 PM
Waning Crescent, 13% visible
METAR K3LF 282235Z AUTO 10004KT 10SM CLR 33/21 A3011 RMK AO2 T03300214
Pressure 30.11 in
Visibility 10.0 miles
Clouds Clear
Heat Index 100 °F
Dew Point 74 °F
Humidity 57%
Rainfall 0.00 in
Snow Depth Not available.
6:23 AM 7:34 PM
Waning Crescent, 13% visible
METAR K3LF 282235Z AUTO 10004KT 10SM CLR 33/21 A3011 RMK AO2 T03300214

10-Day Weather Forecast

Almanac

Astronomy

Aug. 28, 2016 Rise Set
Actual Time
Civil Twilight
Nautical Twilight
Astronomical Twilight
Moon
Length of Visible Light
Length of Day
Tomorrow will be .
, % of the Moon is Illuminated

Today's Extremes

State Highs State Lows

Community

WunderPhotos

Upload Photos

1,935,705 photos uploaded!

WunderBlog® & News

Nearby

Air Quality

  Air Quality AQ Index Pollutant
Not available.

Snow Depth

Station Depth Elevation

Earthquake Activity

City Distance Mag. Time & Date
Minimum magnitude displayed is 2.5.

Coastal Water Temperatures

Place Temperature

Stations

Nearby Weather Stations

Station Location Temp. Windchill Dew Point Humidity Wind Precip. Elev Updated Type
                   

Watches & Warnings

There are currently no watches in effect.